sensor_id;sensor_type;location;lat;lon;timestamp;P1;durP1;ratioP1;P2;durP2;ratioP2
72427;SDS011;60419;48.880;18.036;2023-04-06T00:01:31;15.88;;;7.68;;
72427;SDS011;60419;48.880;18.036;2023-04-06T00:04:17;15.02;;;8.48;;
72427;SDS011;60419;48.880;18.036;2023-04-06T00:07:02;16.33;;;8.25;;
72427;SDS011;60419;48.880;18.036;2023-04-06T00:09:48;17.50;;;8.23;;
72427;SDS011;60419;48.880;18.036;2023-04-06T00:12:33;17.23;;;8.43;;
72427;SDS011;60419;48.880;18.036;2023-04-06T00:15:19;19.30;;;8.40;;
72427;SDS011;60419;48.880;18.036;2023-04-06T00:18:05;17.20;;;8.80;;
72427;SDS011;60419;48.880;18.036;2023-04-06T00:20:51;16.30;;;8.30;;
72427;SDS011;60419;48.880;18.036;2023-04-06T00:23:36;16.92;;;7.82;;
72427;SDS011;60419;48.880;18.036;2023-04-06T00:26:21;17.40;;;8.43;;
72427;SDS011;60419;48.880;18.036;2023-04-06T00:29:07;18.90;;;9.63;;
72427;SDS011;60419;48.880;18.036;2023-04-06T00:31:53;18.38;;;10.07;;
72427;SDS011;60419;48.880;18.036;2023-04-06T00:34:38;13.52;;;8.35;;
72427;SDS011;60419;48.880;18.036;2023-04-06T00:37:24;15.32;;;8.35;;
72427;SDS011;60419;48.880;18.036;2023-04-06T00:40:09;17.25;;;8.43;;
72427;SDS011;60419;48.880;18.036;2023-04-06T00:42:55;17.05;;;8.60;;
72427;SDS011;60419;48.880;18.036;2023-04-06T00:45:41;16.58;;;9.68;;
72427;SDS011;60419;48.880;18.036;2023-04-06T00:48:26;18.92;;;9.27;;
72427;SDS011;60419;48.880;18.036;2023-04-06T00:51:12;19.73;;;8.57;;
72427;SDS011;60419;48.880;18.036;2023-04-06T00:53:57;16.65;;;8.52;;
72427;SDS011;60419;48.880;18.036;2023-04-06T00:56:43;14.63;;;7.90;;
72427;SDS011;60419;48.880;18.036;2023-04-06T00:59:28;13.80;;;7.32;;
72427;SDS011;60419;48.880;18.036;2023-04-06T01:02:14;18.13;;;7.82;;
72427;SDS011;60419;48.880;18.036;2023-04-06T01:05:00;17.30;;;8.55;;
72427;SDS011;60419;48.880;18.036;2023-04-06T01:07:45;15.02;;;8.10;;
72427;SDS011;60419;48.880;18.036;2023-04-06T01:10:30;14.95;;;8.00;;
72427;SDS011;60419;48.880;18.036;2023-04-06T01:13:16;13.73;;;7.70;;
72427;SDS011;60419;48.880;18.036;2023-04-06T01:16:02;14.95;;;7.90;;
72427;SDS011;60419;48.880;18.036;2023-04-06T01:18:47;14.85;;;8.23;;
72427;SDS011;60419;48.880;18.036;2023-04-06T01:21:32;20.45;;;9.07;;
72427;SDS011;60419;48.880;18.036;2023-04-06T01:24:18;13.43;;;7.82;;
72427;SDS011;60419;48.880;18.036;2023-04-06T01:27:04;19.42;;;8.48;;
72427;SDS011;60419;48.880;18.036;2023-04-06T01:29:49;15.88;;;8.05;;
72427;SDS011;60419;48.880;18.036;2023-04-06T01:32:35;14.93;;;7.95;;
72427;SDS011;60419;48.880;18.036;2023-04-06T01:35:21;19.73;;;9.02;;
72427;SDS011;60419;48.880;18.036;2023-04-06T01:38:07;16.10;;;8.15;;
72427;SDS011;60419;48.880;18.036;2023-04-06T01:40:53;16.13;;;8.57;;
72427;SDS011;60419;48.880;18.036;2023-04-06T01:43:38;17.40;;;8.07;;
72427;SDS011;60419;48.880;18.036;2023-04-06T01:46:24;16.50;;;8.35;;
72427;SDS011;60419;48.880;18.036;2023-04-06T01:49:09;15.40;;;8.57;;
72427;SDS011;60419;48.880;18.036;2023-04-06T01:51:55;15.80;;;8.63;;
72427;SDS011;60419;48.880;18.036;2023-04-06T01:54:40;17.52;;;8.18;;
72427;SDS011;60419;48.880;18.036;2023-04-06T01:57:26;19.80;;;8.57;;
72427;SDS011;60419;48.880;18.036;2023-04-06T02:00:11;15.30;;;8.70;;
72427;SDS011;60419;48.880;18.036;2023-04-06T02:02:57;16.83;;;8.65;;
72427;SDS011;60419;48.880;18.036;2023-04-06T02:05:43;17.17;;;9.20;;
72427;SDS011;60419;48.880;18.036;2023-04-06T02:08:28;17.63;;;8.73;;
72427;SDS011;60419;48.880;18.036;2023-04-06T02:11:14;16.63;;;8.05;;
72427;SDS011;60419;48.880;18.036;2023-04-06T02:13:59;16.45;;;8.00;;
72427;SDS011;60419;48.880;18.036;2023-04-06T02:16:45;19.63;;;8.73;;
72427;SDS011;60419;48.880;18.036;2023-04-06T02:19:31;20.10;;;7.68;;
72427;SDS011;60419;48.880;18.036;2023-04-06T02:22:16;16.67;;;8.05;;
72427;SDS011;60419;48.880;18.036;2023-04-06T02:25:02;17.08;;;8.73;;
72427;SDS011;60419;48.880;18.036;2023-04-06T02:27:47;18.40;;;8.30;;
72427;SDS011;60419;48.880;18.036;2023-04-06T02:30:33;15.35;;;8.35;;
72427;SDS011;60419;48.880;18.036;2023-04-06T02:33:19;17.65;;;8.55;;
72427;SDS011;60419;48.880;18.036;2023-04-06T02:36:05;15.55;;;8.20;;
72427;SDS011;60419;48.880;18.036;2023-04-06T02:38:50;17.27;;;8.13;;
72427;SDS011;60419;48.880;18.036;2023-04-06T02:41:36;16.73;;;7.20;;
72427;SDS011;60419;48.880;18.036;2023-04-06T02:44:22;16.30;;;8.40;;
72427;SDS011;60419;48.880;18.036;2023-04-06T02:47:08;17.08;;;8.32;;
72427;SDS011;60419;48.880;18.036;2023-04-06T02:49:53;16.15;;;8.07;;
72427;SDS011;60419;48.880;18.036;2023-04-06T02:52:39;17.55;;;8.88;;
72427;SDS011;60419;48.880;18.036;2023-04-06T02:55:24;18.38;;;8.35;;
72427;SDS011;60419;48.880;18.036;2023-04-06T02:58:10;16.17;;;8.30;;
72427;SDS011;60419;48.880;18.036;2023-04-06T03:00:55;18.63;;;8.00;;
72427;SDS011;60419;48.880;18.036;2023-04-06T03:03:41;14.57;;;8.00;;
72427;SDS011;60419;48.880;18.036;2023-04-06T03:06:26;17.80;;;7.75;;
72427;SDS011;60419;48.880;18.036;2023-04-06T03:09:11;21.55;;;8.70;;
72427;SDS011;60419;48.880;18.036;2023-04-06T03:11:58;20.23;;;9.02;;
72427;SDS011;60419;48.880;18.036;2023-04-06T03:14:44;16.08;;;7.70;;
72427;SDS011;60419;48.880;18.036;2023-04-06T03:17:29;15.23;;;8.70;;
72427;SDS011;60419;48.880;18.036;2023-04-06T03:20:15;15.88;;;8.27;;
72427;SDS011;60419;48.880;18.036;2023-04-06T03:23:00;17.17;;;8.27;;
72427;SDS011;60419;48.880;18.036;2023-04-06T03:25:46;13.85;;;7.55;;
72427;SDS011;60419;48.880;18.036;2023-04-06T03:28:32;16.33;;;8.15;;
72427;SDS011;60419;48.880;18.036;2023-04-06T03:31:17;19.48;;;8.55;;
72427;SDS011;60419;48.880;18.036;2023-04-06T03:34:03;15.10;;;7.40;;
72427;SDS011;60419;48.880;18.036;2023-04-06T03:36:48;17.05;;;8.38;;
72427;SDS011;60419;48.880;18.036;2023-04-06T03:39:34;15.50;;;8.23;;
72427;SDS011;60419;48.880;18.036;2023-04-06T03:42:20;17.60;;;8.63;;
72427;SDS011;60419;48.880;18.036;2023-04-06T03:45:05;17.25;;;8.77;;
72427;SDS011;60419;48.880;18.036;2023-04-06T03:47:51;16.13;;;9.27;;
72427;SDS011;60419;48.880;18.036;2023-04-06T03:50:36;18.83;;;9.82;;
72427;SDS011;60419;48.880;18.036;2023-04-06T03:53:22;17.85;;;8.05;;
72427;SDS011;60419;48.880;18.036;2023-04-06T03:56:07;19.05;;;9.60;;
72427;SDS011;60419;48.880;18.036;2023-04-06T03:58:53;17.70;;;8.85;;
72427;SDS011;60419;48.880;18.036;2023-04-06T04:01:38;18.42;;;8.95;;
72427;SDS011;60419;48.880;18.036;2023-04-06T04:04:24;20.73;;;9.75;;
72427;SDS011;60419;48.880;18.036;2023-04-06T04:07:09;18.50;;;9.15;;
72427;SDS011;60419;48.880;18.036;2023-04-06T04:09:55;16.98;;;8.82;;
72427;SDS011;60419;48.880;18.036;2023-04-06T04:12:40;19.50;;;9.48;;
72427;SDS011;60419;48.880;18.036;2023-04-06T04:15:25;19.80;;;11.40;;
72427;SDS011;60419;48.880;18.036;2023-04-06T04:18:11;21.52;;;9.45;;
72427;SDS011;60419;48.880;18.036;2023-04-06T04:20:56;20.75;;;10.13;;
72427;SDS011;60419;48.880;18.036;2023-04-06T04:23:42;18.73;;;9.32;;
72427;SDS011;60419;48.880;18.036;2023-04-06T04:26:27;17.98;;;9.27;;
72427;SDS011;60419;48.880;18.036;2023-04-06T04:29:12;18.67;;;9.35;;
72427;SDS011;60419;48.880;18.036;2023-04-06T04:31:58;17.90;;;10.07;;
72427;SDS011;60419;48.880;18.036;2023-04-06T04:34:43;18.52;;;10.10;;
72427;SDS011;60419;48.880;18.036;2023-04-06T04:37:29;23.48;;;11.05;;
72427;SDS011;60419;48.880;18.036;2023-04-06T04:40:14;20.23;;;10.15;;
72427;SDS011;60419;48.880;18.036;2023-04-06T04:43:00;22.67;;;10.77;;
72427;SDS011;60419;48.880;18.036;2023-04-06T04:45:46;17.98;;;9.95;;
72427;SDS011;60419;48.880;18.036;2023-04-06T04:48:31;19.35;;;10.55;;
72427;SDS011;60419;48.880;18.036;2023-04-06T04:51:17;18.75;;;10.32;;
72427;SDS011;60419;48.880;18.036;2023-04-06T04:54:02;21.70;;;10.35;;
72427;SDS011;60419;48.880;18.036;2023-04-06T04:56:47;25.08;;;11.45;;
72427;SDS011;60419;48.880;18.036;2023-04-06T04:59:34;24.35;;;14.45;;
72427;SDS011;60419;48.880;18.036;2023-04-06T05:02:19;26.45;;;11.40;;
72427;SDS011;60419;48.880;18.036;2023-04-06T05:05:05;25.17;;;10.45;;
72427;SDS011;60419;48.880;18.036;2023-04-06T05:07:52;23.20;;;11.02;;
72427;SDS011;60419;48.880;18.036;2023-04-06T05:10:37;22.25;;;10.68;;
72427;SDS011;60419;48.880;18.036;2023-04-06T05:13:23;28.42;;;12.45;;
72427;SDS011;60419;48.880;18.036;2023-04-06T05:16:08;23.17;;;10.98;;
72427;SDS011;60419;48.880;18.036;2023-04-06T05:18:54;21.85;;;11.20;;
72427;SDS011;60419;48.880;18.036;2023-04-06T05:21:41;27.08;;;12.07;;
72427;SDS011;60419;48.880;18.036;2023-04-06T05:24:27;31.48;;;13.45;;
72427;SDS011;60419;48.880;18.036;2023-04-06T05:27:12;31.35;;;14.77;;
72427;SDS011;60419;48.880;18.036;2023-04-06T05:29:58;22.98;;;11.18;;
72427;SDS011;60419;48.880;18.036;2023-04-06T05:32:43;26.60;;;11.57;;
72427;SDS011;60419;48.880;18.036;2023-04-06T05:35:29;24.67;;;10.73;;
72427;SDS011;60419;48.880;18.036;2023-04-06T05:38:14;23.58;;;11.68;;
72427;SDS011;60419;48.880;18.036;2023-04-06T05:41:00;20.85;;;11.90;;
72427;SDS011;60419;48.880;18.036;2023-04-06T05:43:45;26.38;;;11.95;;
72427;SDS011;60419;48.880;18.036;2023-04-06T05:46:31;27.00;;;12.00;;
72427;SDS011;60419;48.880;18.036;2023-04-06T05:49:16;24.90;;;11.65;;
72427;SDS011;60419;48.880;18.036;2023-04-06T05:52:02;23.63;;;12.48;;
72427;SDS011;60419;48.880;18.036;2023-04-06T05:54:47;24.27;;;12.68;;
72427;SDS011;60419;48.880;18.036;2023-04-06T05:57:32;23.67;;;13.27;;
72427;SDS011;60419;48.880;18.036;2023-04-06T06:00:18;32.33;;;14.68;;
72427;SDS011;60419;48.880;18.036;2023-04-06T06:03:04;28.58;;;12.98;;
72427;SDS011;60419;48.880;18.036;2023-04-06T06:05:50;28.67;;;13.50;;
72427;SDS011;60419;48.880;18.036;2023-04-06T06:08:36;23.60;;;13.38;;
72427;SDS011;60419;48.880;18.036;2023-04-06T06:11:21;27.08;;;14.02;;
72427;SDS011;60419;48.880;18.036;2023-04-06T06:14:07;31.45;;;14.13;;
72427;SDS011;60419;48.880;18.036;2023-04-06T06:16:54;26.85;;;12.98;;
72427;SDS011;60419;48.880;18.036;2023-04-06T06:19:39;27.33;;;13.20;;
72427;SDS011;60419;48.880;18.036;2023-04-06T06:22:25;28.98;;;15.02;;
72427;SDS011;60419;48.880;18.036;2023-04-06T06:25:10;26.55;;;13.95;;
72427;SDS011;60419;48.880;18.036;2023-04-06T06:27:56;29.40;;;16.10;;
72427;SDS011;60419;48.880;18.036;2023-04-06T06:30:41;27.63;;;15.63;;
72427;SDS011;60419;48.880;18.036;2023-04-06T06:33:27;27.73;;;15.23;;
72427;SDS011;60419;48.880;18.036;2023-04-06T06:36:12;27.67;;;15.50;;
72427;SDS011;60419;48.880;18.036;2023-04-06T06:38:58;28.60;;;15.55;;
72427;SDS011;60419;48.880;18.036;2023-04-06T06:41:44;32.63;;;16.40;;
72427;SDS011;60419;48.880;18.036;2023-04-06T06:44:30;25.95;;;15.48;;
72427;SDS011;60419;48.880;18.036;2023-04-06T06:47:15;28.90;;;15.23;;
72427;SDS011;60419;48.880;18.036;2023-04-06T06:50:01;28.67;;;15.50;;
72427;SDS011;60419;48.880;18.036;2023-04-06T06:52:48;29.98;;;15.48;;
72427;SDS011;60419;48.880;18.036;2023-04-06T06:55:33;29.73;;;14.88;;
72427;SDS011;60419;48.880;18.036;2023-04-06T06:58:18;32.17;;;15.25;;
72427;SDS011;60419;48.880;18.036;2023-04-06T07:01:05;27.10;;;15.40;;
72427;SDS011;60419;48.880;18.036;2023-04-06T07:03:50;29.10;;;15.02;;
72427;SDS011;60419;48.880;18.036;2023-04-06T07:06:35;29.95;;;15.70;;
72427;SDS011;60419;48.880;18.036;2023-04-06T07:09:21;27.23;;;15.13;;
72427;SDS011;60419;48.880;18.036;2023-04-06T07:12:06;24.48;;;14.25;;
72427;SDS011;60419;48.880;18.036;2023-04-06T07:14:52;28.52;;;14.18;;
72427;SDS011;60419;48.880;18.036;2023-04-06T07:17:37;26.75;;;14.27;;
72427;SDS011;60419;48.880;18.036;2023-04-06T07:20:23;19.92;;;10.80;;
72427;SDS011;60419;48.880;18.036;2023-04-06T07:23:08;19.40;;;10.82;;
72427;SDS011;60419;48.880;18.036;2023-04-06T07:25:54;21.20;;;10.38;;
72427;SDS011;60419;48.880;18.036;2023-04-06T07:28:39;20.05;;;10.40;;
72427;SDS011;60419;48.880;18.036;2023-04-06T07:31:25;21.52;;;10.85;;
72427;SDS011;60419;48.880;18.036;2023-04-06T07:34:11;19.38;;;10.63;;
72427;SDS011;60419;48.880;18.036;2023-04-06T07:36:56;15.70;;;8.30;;
72427;SDS011;60419;48.880;18.036;2023-04-06T07:39:41;20.20;;;10.57;;
72427;SDS011;60419;48.880;18.036;2023-04-06T07:42:27;15.85;;;8.13;;
72427;SDS011;60419;48.880;18.036;2023-04-06T07:45:12;17.55;;;9.55;;
72427;SDS011;60419;48.880;18.036;2023-04-06T07:47:58;18.67;;;10.13;;
72427;SDS011;60419;48.880;18.036;2023-04-06T07:50:43;19.27;;;10.55;;
72427;SDS011;60419;48.880;18.036;2023-04-06T07:53:29;20.98;;;11.00;;
72427;SDS011;60419;48.880;18.036;2023-04-06T07:56:15;17.67;;;9.07;;
72427;SDS011;60419;48.880;18.036;2023-04-06T07:59:01;14.15;;;8.23;;
72427;SDS011;60419;48.880;18.036;2023-04-06T08:01:47;22.80;;;10.40;;
72427;SDS011;60419;48.880;18.036;2023-04-06T08:04:32;19.77;;;10.98;;
72427;SDS011;60419;48.880;18.036;2023-04-06T08:07:18;17.63;;;9.52;;
72427;SDS011;60419;48.880;18.036;2023-04-06T08:10:03;17.50;;;9.98;;
72427;SDS011;60419;48.880;18.036;2023-04-06T08:12:49;18.38;;;11.38;;
72427;SDS011;60419;48.880;18.036;2023-04-06T08:15:34;18.58;;;10.63;;
72427;SDS011;60419;48.880;18.036;2023-04-06T08:18:20;18.13;;;10.00;;
72427;SDS011;60419;48.880;18.036;2023-04-06T08:21:05;22.30;;;11.57;;
72427;SDS011;60419;48.880;18.036;2023-04-06T08:23:50;18.45;;;10.32;;
72427;SDS011;60419;48.880;18.036;2023-04-06T08:26:36;22.88;;;10.50;;
72427;SDS011;60419;48.880;18.036;2023-04-06T08:29:21;20.45;;;10.65;;
72427;SDS011;60419;48.880;18.036;2023-04-06T08:32:07;17.40;;;9.80;;
72427;SDS011;60419;48.880;18.036;2023-04-06T08:34:55;18.45;;;10.00;;
72427;SDS011;60419;48.880;18.036;2023-04-06T08:37:41;20.30;;;10.02;;
72427;SDS011;60419;48.880;18.036;2023-04-06T08:40:26;17.60;;;10.25;;
72427;SDS011;60419;48.880;18.036;2023-04-06T08:43:13;16.17;;;8.77;;
72427;SDS011;60419;48.880;18.036;2023-04-06T08:45:59;21.90;;;9.98;;
72427;SDS011;60419;48.880;18.036;2023-04-06T08:48:45;16.92;;;9.43;;
72427;SDS011;60419;48.880;18.036;2023-04-06T08:51:34;15.30;;;8.52;;
72427;SDS011;60419;48.880;18.036;2023-04-06T08:54:22;17.67;;;9.07;;
72427;SDS011;60419;48.880;18.036;2023-04-06T08:57:07;15.73;;;8.80;;
72427;SDS011;60419;48.880;18.036;2023-04-06T08:59:54;15.27;;;9.10;;
72427;SDS011;60419;48.880;18.036;2023-04-06T09:02:42;18.40;;;9.45;;
72427;SDS011;60419;48.880;18.036;2023-04-06T09:05:30;14.63;;;8.90;;
72427;SDS011;60419;48.880;18.036;2023-04-06T09:08:15;20.23;;;10.48;;
72427;SDS011;60419;48.880;18.036;2023-04-06T09:11:01;17.65;;;8.38;;
72427;SDS011;60419;48.880;18.036;2023-04-06T09:13:49;15.77;;;8.63;;
72427;SDS011;60419;48.880;18.036;2023-04-06T09:16:38;13.85;;;8.57;;
72427;SDS011;60419;48.880;18.036;2023-04-06T09:19:26;15.75;;;8.93;;
72427;SDS011;60419;48.880;18.036;2023-04-06T09:22:12;14.65;;;8.13;;
72427;SDS011;60419;48.880;18.036;2023-04-06T09:24:57;11.95;;;7.25;;
72427;SDS011;60419;48.880;18.036;2023-04-06T09:27:42;13.23;;;7.97;;
72427;SDS011;60419;48.880;18.036;2023-04-06T09:30:29;14.35;;;7.88;;
72427;SDS011;60419;48.880;18.036;2023-04-06T09:33:21;15.27;;;8.45;;
72427;SDS011;60419;48.880;18.036;2023-04-06T09:36:08;13.98;;;8.73;;
72427;SDS011;60419;48.880;18.036;2023-04-06T09:41:48;15.63;;;7.80;;
72427;SDS011;60419;48.880;18.036;2023-04-06T09:44:35;14.45;;;8.18;;
72427;SDS011;60419;48.880;18.036;2023-04-06T09:47:21;11.85;;;6.85;;
72427;SDS011;60419;48.880;18.036;2023-04-06T09:50:12;11.60;;;6.73;;
72427;SDS011;60419;48.880;18.036;2023-04-06T09:52:58;11.15;;;7.05;;
72427;SDS011;60419;48.880;18.036;2023-04-06T09:55:45;15.20;;;5.97;;
72427;SDS011;60419;48.880;18.036;2023-04-06T09:58:34;10.65;;;6.22;;
72427;SDS011;60419;48.880;18.036;2023-04-06T10:04:17;10.80;;;6.53;;
72427;SDS011;60419;48.880;18.036;2023-04-06T10:07:10;10.60;;;6.70;;
72427;SDS011;60419;48.880;18.036;2023-04-06T10:09:56;10.60;;;6.35;;
72427;SDS011;60419;48.880;18.036;2023-04-06T10:12:44;9.23;;;5.53;;
72427;SDS011;60419;48.880;18.036;2023-04-06T10:15:32;13.38;;;6.57;;
72427;SDS011;60419;48.880;18.036;2023-04-06T10:18:18;11.05;;;6.15;;
72427;SDS011;60419;48.880;18.036;2023-04-06T10:21:09;10.95;;;6.45;;
72427;SDS011;60419;48.880;18.036;2023-04-06T10:23:58;12.63;;;6.60;;
72427;SDS011;60419;48.880;18.036;2023-04-06T10:27:06;11.15;;;6.18;;
72427;SDS011;60419;48.880;18.036;2023-04-06T10:29:51;10.95;;;6.50;;
72427;SDS011;60419;48.880;18.036;2023-04-06T10:32:37;14.00;;;6.55;;
72427;SDS011;60419;48.880;18.036;2023-04-06T10:35:23;11.45;;;6.75;;
72427;SDS011;60419;48.880;18.036;2023-04-06T10:38:10;11.10;;;6.63;;
72427;SDS011;60419;48.880;18.036;2023-04-06T10:41:03;11.85;;;6.68;;
72427;SDS011;60419;48.880;18.036;2023-04-06T10:43:56;11.75;;;7.28;;
72427;SDS011;60419;48.880;18.036;2023-04-06T10:46:42;13.38;;;7.45;;
72427;SDS011;60419;48.880;18.036;2023-04-06T10:49:40;11.48;;;7.15;;
72427;SDS011;60419;48.880;18.036;2023-04-06T10:52:26;12.30;;;6.75;;
72427;SDS011;60419;48.880;18.036;2023-04-06T10:55:12;14.45;;;8.10;;
72427;SDS011;60419;48.880;18.036;2023-04-06T10:57:58;12.85;;;7.93;;
72427;SDS011;60419;48.880;18.036;2023-04-06T11:00:44;14.77;;;8.52;;
72427;SDS011;60419;48.880;18.036;2023-04-06T11:03:42;13.00;;;8.43;;
72427;SDS011;60419;48.880;18.036;2023-04-06T11:06:31;15.55;;;7.28;;
72427;SDS011;60419;48.880;18.036;2023-04-06T11:09:24;15.35;;;8.57;;
72427;SDS011;60419;48.880;18.036;2023-04-06T11:12:20;11.25;;;7.25;;
72427;SDS011;60419;48.880;18.036;2023-04-06T11:15:10;15.18;;;7.50;;
72427;SDS011;60419;48.880;18.036;2023-04-06T11:17:56;12.52;;;7.50;;
72427;SDS011;60419;48.880;18.036;2023-04-06T11:20:46;12.15;;;8.00;;
72427;SDS011;60419;48.880;18.036;2023-04-06T11:26:18;16.33;;;8.43;;
72427;SDS011;60419;48.880;18.036;2023-04-06T11:29:03;15.45;;;8.75;;
72427;SDS011;60419;48.880;18.036;2023-04-06T11:31:50;15.70;;;8.73;;
72427;SDS011;60419;48.880;18.036;2023-04-06T11:34:38;14.23;;;8.95;;
72427;SDS011;60419;48.880;18.036;2023-04-06T11:37:26;15.48;;;8.90;;
72427;SDS011;60419;48.880;18.036;2023-04-06T11:40:12;15.80;;;9.70;;
72427;SDS011;60419;48.880;18.036;2023-04-06T11:42:58;17.55;;;9.40;;
72427;SDS011;60419;48.880;18.036;2023-04-06T11:45:43;18.58;;;10.77;;
72427;SDS011;60419;48.880;18.036;2023-04-06T11:48:29;18.45;;;9.77;;
72427;SDS011;60419;48.880;18.036;2023-04-06T11:51:22;15.70;;;9.50;;
72427;SDS011;60419;48.880;18.036;2023-04-06T11:54:11;18.95;;;10.15;;
72427;SDS011;60419;48.880;18.036;2023-04-06T11:56:57;15.98;;;9.70;;
72427;SDS011;60419;48.880;18.036;2023-04-06T11:59:43;15.20;;;9.07;;
72427;SDS011;60419;48.880;18.036;2023-04-06T12:02:29;15.18;;;8.27;;
72427;SDS011;60419;48.880;18.036;2023-04-06T12:05:16;17.58;;;9.73;;
72427;SDS011;60419;48.880;18.036;2023-04-06T12:08:01;19.08;;;10.65;;
72427;SDS011;60419;48.880;18.036;2023-04-06T12:10:46;15.88;;;9.90;;
72427;SDS011;60419;48.880;18.036;2023-04-06T12:13:32;17.77;;;11.25;;
72427;SDS011;60419;48.880;18.036;2023-04-06T12:16:17;12.95;;;8.82;;
72427;SDS011;60419;48.880;18.036;2023-04-06T12:19:04;12.38;;;7.50;;
72427;SDS011;60419;48.880;18.036;2023-04-06T12:21:50;13.15;;;8.13;;
72427;SDS011;60419;48.880;18.036;2023-04-06T12:24:35;17.58;;;10.15;;
72427;SDS011;60419;48.880;18.036;2023-04-06T12:27:21;15.65;;;10.20;;
72427;SDS011;60419;48.880;18.036;2023-04-06T12:30:06;21.40;;;10.57;;
72427;SDS011;60419;48.880;18.036;2023-04-06T12:32:52;18.88;;;10.00;;
72427;SDS011;60419;48.880;18.036;2023-04-06T12:35:37;19.80;;;9.80;;
72427;SDS011;60419;48.880;18.036;2023-04-06T12:38:23;17.90;;;9.75;;
72427;SDS011;60419;48.880;18.036;2023-04-06T12:41:09;17.00;;;9.88;;
72427;SDS011;60419;48.880;18.036;2023-04-06T12:43:55;16.35;;;10.18;;
72427;SDS011;60419;48.880;18.036;2023-04-06T12:46:40;18.27;;;10.20;;
72427;SDS011;60419;48.880;18.036;2023-04-06T12:49:28;15.65;;;9.40;;
72427;SDS011;60419;48.880;18.036;2023-04-06T12:52:13;15.02;;;8.90;;
72427;SDS011;60419;48.880;18.036;2023-04-06T12:54:58;18.38;;;11.02;;
72427;SDS011;60419;48.880;18.036;2023-04-06T12:57:45;16.27;;;9.13;;
72427;SDS011;60419;48.880;18.036;2023-04-06T13:00:33;14.38;;;9.25;;
72427;SDS011;60419;48.880;18.036;2023-04-06T13:03:19;16.35;;;8.68;;
72427;SDS011;60419;48.880;18.036;2023-04-06T13:06:05;13.98;;;8.90;;
72427;SDS011;60419;48.880;18.036;2023-04-06T13:08:51;15.38;;;9.73;;
72427;SDS011;60419;48.880;18.036;2023-04-06T13:11:36;16.30;;;9.70;;
72427;SDS011;60419;48.880;18.036;2023-04-06T13:14:21;13.80;;;8.52;;
72427;SDS011;60419;48.880;18.036;2023-04-06T13:17:08;18.85;;;10.00;;
72427;SDS011;60419;48.880;18.036;2023-04-06T13:19:53;13.55;;;8.63;;
72427;SDS011;60419;48.880;18.036;2023-04-06T13:22:39;15.60;;;9.88;;
72427;SDS011;60419;48.880;18.036;2023-04-06T13:25:25;11.30;;;7.35;;
72427;SDS011;60419;48.880;18.036;2023-04-06T13:28:11;16.67;;;8.82;;
72427;SDS011;60419;48.880;18.036;2023-04-06T13:30:58;20.38;;;9.45;;
72427;SDS011;60419;48.880;18.036;2023-04-06T13:33:45;18.80;;;10.98;;
72427;SDS011;60419;48.880;18.036;2023-04-06T13:36:30;15.77;;;9.88;;
72427;SDS011;60419;48.880;18.036;2023-04-06T13:39:17;16.33;;;10.90;;
72427;SDS011;60419;48.880;18.036;2023-04-06T13:42:02;16.50;;;10.70;;
72427;SDS011;60419;48.880;18.036;2023-04-06T13:44:48;17.35;;;11.02;;
72427;SDS011;60419;48.880;18.036;2023-04-06T13:47:35;19.35;;;11.80;;
72427;SDS011;60419;48.880;18.036;2023-04-06T13:50:21;18.80;;;11.63;;
72427;SDS011;60419;48.880;18.036;2023-04-06T13:53:06;15.38;;;9.20;;
72427;SDS011;60419;48.880;18.036;2023-04-06T13:55:52;19.05;;;13.32;;
72427;SDS011;60419;48.880;18.036;2023-04-06T13:58:39;20.23;;;14.30;;
72427;SDS011;60419;48.880;18.036;2023-04-06T14:01:25;19.83;;;13.70;;
72427;SDS011;60419;48.880;18.036;2023-04-06T14:04:11;20.88;;;13.15;;
72427;SDS011;60419;48.880;18.036;2023-04-06T14:06:57;20.23;;;13.35;;
72427;SDS011;60419;48.880;18.036;2023-04-06T14:09:43;23.50;;;13.18;;
72427;SDS011;60419;48.880;18.036;2023-04-06T14:12:28;18.73;;;12.88;;
72427;SDS011;60419;48.880;18.036;2023-04-06T14:15:14;20.90;;;13.90;;
72427;SDS011;60419;48.880;18.036;2023-04-06T14:18:00;21.30;;;15.32;;
72427;SDS011;60419;48.880;18.036;2023-04-06T14:20:52;21.13;;;13.25;;
72427;SDS011;60419;48.880;18.036;2023-04-06T14:23:38;22.27;;;13.75;;
72427;SDS011;60419;48.880;18.036;2023-04-06T14:26:24;20.75;;;12.82;;
72427;SDS011;60419;48.880;18.036;2023-04-06T14:29:09;15.95;;;10.35;;
72427;SDS011;60419;48.880;18.036;2023-04-06T14:31:55;21.70;;;12.43;;
72427;SDS011;60419;48.880;18.036;2023-04-06T14:34:44;18.70;;;12.48;;
72427;SDS011;60419;48.880;18.036;2023-04-06T14:37:30;18.52;;;11.98;;
72427;SDS011;60419;48.880;18.036;2023-04-06T14:40:15;18.30;;;11.57;;
72427;SDS011;60419;48.880;18.036;2023-04-06T14:43:01;15.00;;;10.32;;
72427;SDS011;60419;48.880;18.036;2023-04-06T14:45:46;19.15;;;10.85;;
72427;SDS011;60419;48.880;18.036;2023-04-06T14:48:32;16.10;;;9.20;;
72427;SDS011;60419;48.880;18.036;2023-04-06T14:51:17;16.13;;;9.88;;
72427;SDS011;60419;48.880;18.036;2023-04-06T14:54:03;18.70;;;11.60;;
72427;SDS011;60419;48.880;18.036;2023-04-06T14:56:48;18.20;;;11.02;;
72427;SDS011;60419;48.880;18.036;2023-04-06T14:59:34;17.58;;;11.63;;
72427;SDS011;60419;48.880;18.036;2023-04-06T15:02:19;15.30;;;9.38;;
72427;SDS011;60419;48.880;18.036;2023-04-06T15:05:05;16.00;;;10.45;;
72427;SDS011;60419;48.880;18.036;2023-04-06T15:07:50;18.13;;;11.07;;
72427;SDS011;60419;48.880;18.036;2023-04-06T15:10:36;21.23;;;11.32;;
72427;SDS011;60419;48.880;18.036;2023-04-06T15:13:21;17.63;;;9.88;;
72427;SDS011;60419;48.880;18.036;2023-04-06T15:16:07;26.52;;;14.60;;
72427;SDS011;60419;48.880;18.036;2023-04-06T15:18:52;21.67;;;12.27;;
72427;SDS011;60419;48.880;18.036;2023-04-06T15:21:38;19.75;;;12.73;;
72427;SDS011;60419;48.880;18.036;2023-04-06T15:24:23;21.35;;;14.20;;
72427;SDS011;60419;48.880;18.036;2023-04-06T15:27:09;16.15;;;9.52;;
72427;SDS011;60419;48.880;18.036;2023-04-06T15:29:54;21.80;;;12.35;;
72427;SDS011;60419;48.880;18.036;2023-04-06T15:32:41;22.88;;;14.45;;
72427;SDS011;60419;48.880;18.036;2023-04-06T15:35:36;22.67;;;13.40;;
72427;SDS011;60419;48.880;18.036;2023-04-06T15:38:26;28.55;;;15.73;;
72427;SDS011;60419;48.880;18.036;2023-04-06T15:41:13;24.48;;;14.57;;
72427;SDS011;60419;48.880;18.036;2023-04-06T15:43:59;27.83;;;15.48;;
72427;SDS011;60419;48.880;18.036;2023-04-06T15:46:45;26.30;;;15.90;;
72427;SDS011;60419;48.880;18.036;2023-04-06T15:49:30;23.92;;;14.73;;
72427;SDS011;60419;48.880;18.036;2023-04-06T15:52:15;21.15;;;14.18;;
72427;SDS011;60419;48.880;18.036;2023-04-06T15:55:04;24.92;;;15.65;;
72427;SDS011;60419;48.880;18.036;2023-04-06T15:57:51;20.45;;;12.65;;
72427;SDS011;60419;48.880;18.036;2023-04-06T16:00:36;24.15;;;16.65;;
72427;SDS011;60419;48.880;18.036;2023-04-06T16:03:22;26.92;;;16.48;;
72427;SDS011;60419;48.880;18.036;2023-04-06T16:06:07;26.95;;;16.95;;
72427;SDS011;60419;48.880;18.036;2023-04-06T16:08:53;31.90;;;15.65;;
72427;SDS011;60419;48.880;18.036;2023-04-06T16:11:38;26.92;;;15.93;;
72427;SDS011;60419;48.880;18.036;2023-04-06T16:14:24;32.53;;;19.42;;